createdAt,value
2017-07-24T00:00:42.337Z,17.04
2017-07-24T00:03:10.951Z,16.95
2017-07-24T00:05:39.281Z,17.02
2017-07-24T00:08:07.623Z,16.96
2017-07-24T00:10:35.960Z,16.97
2017-07-24T00:13:04.291Z,17.10
2017-07-24T00:15:32.636Z,17.17
2017-07-24T00:18:00.982Z,17.04
2017-07-24T00:20:29.333Z,16.98
2017-07-24T00:22:57.686Z,17.10
2017-07-24T00:25:26.034Z,17.00
2017-07-24T00:27:54.648Z,16.92
2017-07-24T00:30:22.980Z,16.95
2017-07-24T00:32:51.317Z,16.95
2017-07-24T00:35:19.672Z,16.99
2017-07-24T00:37:48.009Z,16.97
2017-07-24T00:40:16.605Z,16.98
2017-07-24T00:42:44.923Z,16.97
2017-07-24T00:45:13.257Z,17.05
2017-07-24T00:47:41.622Z,16.98
2017-07-24T00:50:09.967Z,16.93
2017-07-24T00:52:38.319Z,16.92
2017-07-24T00:55:06.678Z,16.75
2017-07-24T00:57:35.016Z,16.86
2017-07-24T01:00:03.742Z,17.02
2017-07-24T01:02:32.059Z,16.96
2017-07-24T01:05:00.425Z,16.79
2017-07-24T01:07:28.785Z,16.71
2017-07-24T01:09:57.120Z,16.64
2017-07-24T01:12:25.487Z,16.68
2017-07-24T01:14:53.841Z,16.60
2017-07-24T01:17:22.187Z,16.47
2017-07-24T01:19:50.526Z,16.38
2017-07-24T01:22:18.869Z,16.29
2017-07-24T01:24:47.201Z,16.29
2017-07-24T01:27:15.559Z,16.18
2017-07-24T01:29:43.924Z,16.20
2017-07-24T01:32:12.242Z,16.17
2017-07-24T01:34:40.866Z,16.15
2017-07-24T01:37:09.992Z,16.22
2017-07-24T01:39:38.314Z,16.19
2017-07-24T01:42:06.665Z,16.16
2017-07-24T01:44:35.001Z,15.95
2017-07-24T01:47:03.600Z,16.07
2017-07-24T01:49:32.059Z,16.19
2017-07-24T01:52:00.402Z,16.22
2017-07-24T01:54:28.763Z,16.21
2017-07-24T01:56:57.101Z,16.15
2017-07-24T01:59:25.688Z,15.96
2017-07-24T02:01:54.142Z,16.20
2017-07-24T02:04:22.490Z,16.30
2017-07-24T02:06:50.854Z,16.07
2017-07-24T02:09:19.195Z,15.93
2017-07-24T02:11:47.819Z,16.01
2017-07-24T02:14:16.140Z,15.99
2017-07-24T02:16:44.465Z,15.98
2017-07-24T02:19:13.560Z,16.01
2017-07-24T02:21:41.889Z,16.10
2017-07-24T02:24:10.497Z,16.05
2017-07-24T02:26:38.837Z,16.10
2017-07-24T02:29:07.167Z,15.85
2017-07-24T02:31:35.507Z,15.85
2017-07-24T02:34:03.827Z,15.89
2017-07-24T02:36:32.196Z,15.95
2017-07-24T02:39:00.564Z,15.92
2017-07-24T02:41:28.919Z,15.98
2017-07-24T02:43:57.277Z,15.99
2017-07-24T02:46:25.657Z,15.90
2017-07-24T02:48:54.035Z,15.91
2017-07-24T02:51:22.390Z,16.03
2017-07-24T02:53:50.727Z,15.96
2017-07-24T02:56:19.067Z,15.79
2017-07-24T02:58:47.392Z,15.73
2017-07-24T03:01:15.754Z,15.54
2017-07-24T03:03:44.105Z,15.46
2017-07-24T03:06:12.423Z,15.63
2017-07-24T03:08:40.768Z,15.79
2017-07-24T03:11:09.098Z,15.74
2017-07-24T03:13:37.716Z,15.73
2017-07-24T03:16:06.060Z,15.79
2017-07-24T03:18:34.394Z,15.82
2017-07-24T03:21:03.411Z,15.83
2017-07-24T03:23:31.769Z,15.89
2017-07-24T03:26:00.391Z,15.87
2017-07-24T03:28:28.715Z,15.84
2017-07-24T03:30:57.046Z,15.89
2017-07-24T03:33:25.394Z,15.93
2017-07-24T03:35:53.736Z,15.85
2017-07-24T03:38:22.352Z,15.72
2017-07-24T03:40:50.701Z,15.77
2017-07-24T03:43:19.747Z,15.74
2017-07-24T03:45:48.097Z,15.72
2017-07-24T03:48:16.416Z,15.85
2017-07-24T03:50:44.779Z,15.71
2017-07-24T03:53:13.142Z,15.79
2017-07-24T03:55:41.474Z,15.76
2017-07-24T03:58:09.807Z,15.75
2017-07-24T04:00:38.155Z,15.83
2017-07-24T04:03:06.505Z,15.82
2017-07-24T04:05:34.835Z,15.78
2017-07-24T04:08:03.194Z,15.76
2017-07-24T04:10:31.627Z,15.57
2017-07-24T04:12:59.955Z,15.62
2017-07-24T04:15:28.573Z,15.51
2017-07-24T04:17:56.894Z,15.43
2017-07-24T04:20:25.238Z,15.58
2017-07-24T04:22:53.593Z,15.49
2017-07-24T04:25:21.941Z,15.46
2017-07-24T04:27:50.306Z,15.44
2017-07-24T04:30:18.675Z,15.44
2017-07-24T04:32:47.016Z,15.41
2017-07-24T04:35:15.358Z,15.24
2017-07-24T04:37:43.788Z,15.27
2017-07-24T04:40:12.142Z,15.31
2017-07-24T04:42:40.521Z,15.39
2017-07-24T04:45:08.886Z,15.46
2017-07-24T04:47:37.226Z,15.52
2017-07-24T04:50:05.556Z,15.30
2017-07-24T04:52:33.900Z,15.38
2017-07-24T04:55:02.241Z,15.24
2017-07-24T04:57:30.585Z,15.25
2017-07-24T04:59:58.925Z,15.30
2017-07-24T05:02:27.243Z,15.34
2017-07-24T05:04:55.854Z,15.38
2017-07-24T05:07:24.170Z,15.21
2017-07-24T05:09:52.501Z,15.26
2017-07-24T05:12:20.866Z,15.13
2017-07-24T05:14:49.197Z,15.13
2017-07-24T05:17:17.563Z,15.08
2017-07-24T05:19:45.917Z,15.21
2017-07-24T05:22:14.254Z,15.28
2017-07-24T05:24:43.325Z,15.30
2017-07-24T05:27:11.673Z,15.21
2017-07-24T05:29:40.287Z,15.25
2017-07-24T05:32:08.609Z,15.32
2017-07-24T05:34:36.951Z,15.38
2017-07-24T05:37:05.314Z,15.29
2017-07-24T05:39:33.646Z,15.29
2017-07-24T05:42:02.257Z,15.21
2017-07-24T05:44:30.595Z,15.22
2017-07-24T05:46:58.935Z,15.17
2017-07-24T05:49:27.290Z,15.19
2017-07-24T05:51:55.625Z,15.33
2017-07-24T05:54:24.219Z,15.33
2017-07-24T05:56:52.544Z,15.24
2017-07-24T05:59:20.884Z,15.19
2017-07-24T06:01:49.246Z,15.22
2017-07-24T06:04:17.579Z,15.13
2017-07-24T06:06:46.227Z,15.22
2017-07-24T06:09:14.564Z,15.23
2017-07-24T06:11:42.919Z,15.21
2017-07-24T06:14:11.303Z,15.22
2017-07-24T06:16:39.644Z,15.14
2017-07-24T06:19:08.243Z,15.28
2017-07-24T06:21:36.563Z,15.35
2017-07-24T06:24:04.905Z,15.38
2017-07-24T06:26:33.266Z,15.36
2017-07-24T06:29:01.615Z,15.45
2017-07-24T06:31:29.987Z,15.38
2017-07-24T06:33:58.331Z,15.54
2017-07-24T06:36:26.648Z,15.54
2017-07-24T06:38:54.982Z,15.51
2017-07-24T06:41:23.297Z,15.58
2017-07-24T06:43:51.671Z,15.59
2017-07-24T06:46:20.002Z,15.58
2017-07-24T06:48:48.330Z,15.68
2017-07-24T06:51:16.975Z,15.67
2017-07-24T06:53:45.301Z,15.74
2017-07-24T06:56:13.665Z,15.86
2017-07-24T06:58:42.009Z,15.86
2017-07-24T07:01:10.337Z,15.84
2017-07-24T07:03:38.706Z,15.94
2017-07-24T07:06:07.974Z,15.87
2017-07-24T07:08:36.320Z,15.87
2017-07-24T07:11:04.687Z,15.80
2017-07-24T07:13:33.030Z,15.88
2017-07-24T07:16:01.713Z,15.78
2017-07-24T07:18:30.046Z,15.77
2017-07-24T07:20:58.400Z,15.82
2017-07-24T07:23:26.754Z,15.84
2017-07-24T07:25:55.134Z,15.80
2017-07-24T07:28:23.788Z,15.72
2017-07-24T07:30:52.128Z,15.86
2017-07-24T07:33:20.476Z,15.88
2017-07-24T07:35:48.837Z,16.04
2017-07-24T07:38:17.146Z,16.08
2017-07-24T07:40:45.755Z,16.06
2017-07-24T07:43:14.103Z,16.01
2017-07-24T07:45:42.467Z,16.07
2017-07-24T07:48:10.820Z,16.05
2017-07-24T07:50:39.156Z,16.11
2017-07-24T07:53:07.782Z,16.23
2017-07-24T07:55:36.131Z,16.30
2017-07-24T07:58:04.481Z,16.34
2017-07-24T08:00:32.830Z,16.26
2017-07-24T08:03:01.161Z,16.38
2017-07-24T08:05:30.429Z,16.25
2017-07-24T08:07:58.768Z,16.38
2017-07-24T08:10:27.110Z,16.52
2017-07-24T08:12:55.451Z,16.49
2017-07-24T08:15:23.793Z,16.68
2017-07-24T08:17:52.398Z,16.72
2017-07-24T08:20:21.325Z,16.78
2017-07-24T08:22:49.663Z,16.82
2017-07-24T08:25:18.015Z,17.00
2017-07-24T08:27:46.350Z,17.12
2017-07-24T08:30:14.990Z,17.22
2017-07-24T08:32:43.384Z,17.29
2017-07-24T08:35:11.735Z,17.36
2017-07-24T08:37:41.174Z,17.20
2017-07-24T08:40:09.529Z,17.07
2017-07-24T08:42:37.877Z,17.15
2017-07-24T08:45:06.509Z,17.07
2017-07-24T08:47:34.866Z,16.96
2017-07-24T08:50:03.278Z,17.02
2017-07-24T08:52:31.682Z,17.02
2017-07-24T08:55:00.020Z,16.99
2017-07-24T08:57:28.361Z,17.04
2017-07-24T08:59:56.720Z,17.06
2017-07-24T09:02:25.069Z,17.16
2017-07-24T09:04:53.435Z,17.15
2017-07-24T09:07:21.814Z,17.26
2017-07-24T09:09:50.163Z,17.14
2017-07-24T09:12:18.512Z,17.29
2017-07-24T09:14:46.871Z,17.43
2017-07-24T09:17:15.528Z,17.47
2017-07-24T09:19:43.872Z,17.60
2017-07-24T09:22:12.820Z,17.55
2017-07-24T09:24:41.182Z,17.50
2017-07-24T09:27:09.510Z,17.39
2017-07-24T09:29:37.871Z,17.46
2017-07-24T09:32:06.283Z,17.40
2017-07-24T09:34:34.615Z,17.46
2017-07-24T09:37:02.981Z,17.49
2017-07-24T09:39:31.317Z,17.43
2017-07-24T09:41:59.939Z,17.35
2017-07-24T09:44:28.281Z,17.32
2017-07-24T09:46:56.651Z,17.45
2017-07-24T09:49:25.012Z,17.51
2017-07-24T09:51:53.347Z,17.58
2017-07-24T09:54:21.748Z,17.60
2017-07-24T09:56:50.119Z,17.77
2017-07-24T09:59:18.461Z,17.92
2017-07-24T10:01:46.811Z,17.92
2017-07-24T10:04:15.138Z,17.97
2017-07-24T10:06:43.724Z,17.96
2017-07-24T10:09:12.049Z,17.97
2017-07-24T10:11:40.363Z,17.82
2017-07-24T10:14:08.982Z,17.94
2017-07-24T10:16:37.349Z,18.04
2017-07-24T10:19:05.703Z,18.08
2017-07-24T10:21:34.084Z,18.14
2017-07-24T10:24:02.414Z,18.18
2017-07-24T10:26:31.024Z,18.26
2017-07-24T10:28:59.358Z,18.41
2017-07-24T10:31:27.679Z,18.40
2017-07-24T10:33:56.305Z,18.45
2017-07-24T10:36:24.640Z,18.43
2017-07-24T10:38:52.990Z,18.35
2017-07-24T10:41:21.451Z,18.43
2017-07-24T10:43:49.789Z,18.56
2017-07-24T10:46:18.400Z,18.67
2017-07-24T10:48:46.756Z,18.67
2017-07-24T10:51:15.082Z,18.78
2017-07-24T10:53:43.425Z,18.64
2017-07-24T10:56:11.773Z,18.79
2017-07-24T10:58:40.368Z,18.90
2017-07-24T11:01:08.706Z,18.99
2017-07-24T11:03:37.047Z,19.03
2017-07-24T11:06:05.395Z,19.07
2017-07-24T11:08:33.731Z,19.04
2017-07-24T11:11:02.356Z,18.88
2017-07-24T11:13:30.702Z,18.87
2017-07-24T11:15:59.046Z,18.76
2017-07-24T11:18:27.706Z,18.72
2017-07-24T11:20:56.028Z,18.70
2017-07-24T11:23:24.357Z,18.76
2017-07-24T11:25:52.706Z,18.71
2017-07-24T11:28:21.024Z,18.69
2017-07-24T11:30:49.375Z,18.63
2017-07-24T11:33:17.732Z,18.63
2017-07-24T11:35:46.055Z,18.17
2017-07-24T11:38:14.655Z,17.67
2017-07-24T11:40:42.991Z,17.41
2017-07-24T11:43:11.309Z,17.23
2017-07-24T11:45:39.662Z,17.13
2017-07-24T11:48:07.983Z,17.05
2017-07-24T11:50:37.473Z,17.12
2017-07-24T11:53:05.803Z,17.22
2017-07-24T11:55:34.149Z,17.04
2017-07-24T11:58:02.495Z,17.21
2017-07-24T12:00:30.826Z,17.13
2017-07-24T12:02:59.449Z,17.23
2017-07-24T12:05:27.793Z,17.49
2017-07-24T12:07:56.251Z,17.59
2017-07-24T12:10:25.094Z,17.67
2017-07-24T12:12:53.996Z,17.78
2017-07-24T12:15:25.434Z,17.88
2017-07-24T12:17:57.194Z,17.94
2017-07-24T12:20:27.992Z,17.74
2017-07-24T12:22:56.489Z,17.58
2017-07-24T12:25:24.851Z,17.63
2017-07-24T12:27:53.205Z,17.74
2017-07-24T12:30:21.533Z,17.87
2017-07-24T12:32:50.135Z,17.91
2017-07-24T12:35:18.459Z,17.98
2017-07-24T12:37:46.782Z,17.93
2017-07-24T12:40:15.546Z,17.88
2017-07-24T12:42:43.877Z,17.94
2017-07-24T12:45:12.195Z,18.02
2017-07-24T12:47:41.326Z,18.12
2017-07-24T12:50:09.668Z,18.22
2017-07-24T12:52:38.379Z,18.30
2017-07-24T12:55:06.729Z,18.44
2017-07-24T12:57:35.085Z,18.54
2017-07-24T13:00:03.466Z,18.75
2017-07-24T13:02:31.817Z,18.82
2017-07-24T13:05:00.584Z,19.01
2017-07-24T13:07:28.925Z,19.07
2017-07-24T13:09:57.281Z,18.93
2017-07-24T13:12:25.635Z,18.84
2017-07-24T13:14:53.982Z,18.93
2017-07-24T13:17:23.430Z,18.84
2017-07-24T13:19:51.779Z,18.69
2017-07-24T13:22:20.125Z,18.56
2017-07-24T13:24:48.481Z,18.47
2017-07-24T13:27:16.824Z,18.41
2017-07-24T13:29:45.612Z,18.30
2017-07-24T13:32:13.994Z,18.13
2017-07-24T13:34:43.347Z,17.74
2017-07-24T13:37:11.700Z,17.68
2017-07-24T13:39:40.028Z,17.49
2017-07-24T13:42:08.647Z,17.32
2017-07-24T13:44:36.976Z,17.30
2017-07-24T13:47:05.318Z,17.19
2017-07-24T13:49:33.676Z,17.21
2017-07-24T13:52:02.022Z,17.02
2017-07-24T13:54:30.637Z,17.07
2017-07-24T13:56:58.989Z,17.14
2017-07-24T13:59:27.319Z,17.15
2017-07-24T14:01:55.946Z,17.07
2017-07-24T14:04:24.314Z,16.88
2017-07-24T14:06:52.714Z,16.89
2017-07-24T14:09:21.082Z,16.87
2017-07-24T14:11:49.770Z,16.82
2017-07-24T14:14:18.547Z,16.83
2017-07-24T14:16:46.935Z,16.81
2017-07-24T14:19:15.299Z,16.91
2017-07-24T14:21:43.631Z,16.95
2017-07-24T14:24:11.956Z,17.12
2017-07-24T14:26:40.574Z,17.18
2017-07-24T14:29:08.925Z,17.35
2017-07-24T14:31:37.268Z,17.54
2017-07-24T14:34:05.620Z,17.73
2017-07-24T14:36:33.979Z,17.89
2017-07-24T14:39:02.634Z,18.35
2017-07-24T14:41:31.749Z,18.67
2017-07-24T14:44:00.106Z,18.69
2017-07-24T14:46:28.448Z,18.66
2017-07-24T14:48:56.799Z,18.73
2017-07-24T14:51:25.442Z,18.88
2017-07-24T14:53:53.787Z,19.14
2017-07-24T14:56:22.118Z,19.54
2017-07-24T14:58:50.508Z,19.75
2017-07-24T15:01:18.823Z,19.64
2017-07-24T15:03:47.239Z,19.68
2017-07-24T15:06:15.609Z,19.64
2017-07-24T15:08:43.992Z,20.07
2017-07-24T15:11:12.356Z,20.10
2017-07-24T15:13:40.736Z,20.07
2017-07-24T15:16:09.187Z,19.86
2017-07-24T15:18:37.536Z,20.01
2017-07-24T15:21:05.887Z,20.24
2017-07-24T15:23:34.259Z,20.47
2017-07-24T15:26:02.595Z,20.70
2017-07-24T15:28:31.202Z,20.33
2017-07-24T15:30:59.557Z,20.69
2017-07-24T15:33:28.563Z,20.99
2017-07-24T15:35:56.931Z,21.07
2017-07-24T15:38:25.266Z,20.89
2017-07-24T15:40:53.851Z,20.55
2017-07-24T15:43:22.208Z,20.44
2017-07-24T15:45:50.571Z,20.25
2017-07-24T15:48:18.922Z,20.15
2017-07-24T15:50:47.274Z,19.99
2017-07-24T15:53:15.656Z,20.06
2017-07-24T15:55:44.013Z,20.00
2017-07-24T15:58:12.683Z,19.92
2017-07-24T16:00:41.686Z,19.54
2017-07-24T16:03:10.030Z,18.95
2017-07-24T16:05:38.399Z,18.81
2017-07-24T16:08:06.737Z,18.66
2017-07-24T16:10:35.337Z,18.38
2017-07-24T16:13:03.668Z,18.18
2017-07-24T16:15:31.995Z,18.20
2017-07-24T16:18:01.700Z,17.97
2017-07-24T16:20:30.042Z,17.95
2017-07-24T16:22:58.401Z,17.87
2017-07-24T16:25:26.762Z,17.66
2017-07-24T16:27:55.098Z,17.50
2017-07-24T16:30:23.454Z,17.29
2017-07-24T16:32:51.806Z,17.18
2017-07-24T16:35:20.415Z,17.39
2017-07-24T16:37:48.760Z,17.32
2017-07-24T16:40:17.100Z,17.39
2017-07-24T16:42:45.471Z,17.38
2017-07-24T16:45:13.815Z,17.04
2017-07-24T16:47:42.436Z,17.15
2017-07-24T16:50:10.780Z,17.20
2017-07-24T16:52:39.125Z,17.20
2017-07-24T16:55:07.507Z,17.04
2017-07-24T16:57:35.828Z,17.06
2017-07-24T17:00:04.448Z,17.01
2017-07-24T17:02:32.780Z,17.09
2017-07-24T17:05:01.124Z,17.00
2017-07-24T17:07:29.710Z,16.74
2017-07-24T17:09:58.055Z,16.67
2017-07-24T17:12:26.400Z,16.82
2017-07-24T17:14:54.735Z,16.59
2017-07-24T17:17:23.056Z,16.63
2017-07-24T17:19:51.706Z,16.74
2017-07-24T17:22:20.068Z,16.62
2017-07-24T17:24:48.713Z,16.50
2017-07-24T17:27:17.071Z,16.57
2017-07-24T17:29:45.440Z,16.50
2017-07-24T17:32:13.821Z,16.61
2017-07-24T17:34:42.159Z,16.32
2017-07-24T17:37:10.511Z,16.23
2017-07-24T17:39:38.872Z,16.15
2017-07-24T17:42:07.214Z,16.12
2017-07-24T17:44:35.653Z,16.16
2017-07-24T17:47:04.022Z,16.29
2017-07-24T17:49:32.362Z,16.29
2017-07-24T17:52:00.723Z,16.31
2017-07-24T17:54:29.906Z,16.26
2017-07-24T17:56:58.265Z,16.24
2017-07-24T17:59:26.627Z,16.12
2017-07-24T18:01:54.968Z,16.05
2017-07-24T18:04:23.320Z,16.06
2017-07-24T18:06:55.475Z,16.09
2017-07-24T18:09:25.306Z,16.08
2017-07-24T18:11:53.937Z,15.92
2017-07-24T18:14:22.325Z,15.94
2017-07-24T18:16:50.653Z,15.91
2017-07-24T18:19:25.981Z,15.95
2017-07-24T18:21:56.406Z,16.02
2017-07-24T18:24:24.754Z,15.96
2017-07-24T18:26:53.713Z,16.14
2017-07-24T18:29:22.060Z,16.17
2017-07-24T18:31:50.435Z,16.06
2017-07-24T18:34:18.795Z,16.21
2017-07-24T18:36:47.133Z,15.98
2017-07-24T18:39:15.556Z,15.96
2017-07-24T18:41:43.936Z,16.05
2017-07-24T18:44:12.571Z,16.10
2017-07-24T18:46:40.924Z,16.03
2017-07-24T18:49:09.265Z,16.03
2017-07-24T18:51:37.649Z,15.97
2017-07-24T18:54:06.012Z,15.97
2017-07-24T18:56:34.625Z,15.95
2017-07-24T18:59:02.962Z,15.66
2017-07-24T19:01:31.313Z,15.69
2017-07-24T19:03:59.672Z,15.62
2017-07-24T19:06:28.010Z,15.60
2017-07-24T19:08:56.385Z,15.57
2017-07-24T19:11:24.750Z,15.54
2017-07-24T19:13:53.094Z,15.50
2017-07-24T19:16:21.722Z,15.50
2017-07-24T19:18:50.056Z,15.43
2017-07-24T19:21:18.397Z,15.33
2017-07-24T19:23:46.778Z,15.17
2017-07-24T19:26:15.124Z,15.20
2017-07-24T19:28:43.486Z,15.10
2017-07-24T19:31:11.843Z,15.19
2017-07-24T19:33:40.187Z,15.06
2017-07-24T19:36:08.803Z,15.03
2017-07-24T19:38:38.052Z,15.04
2017-07-24T19:41:06.391Z,14.96
2017-07-24T19:43:34.754Z,15.03
2017-07-24T19:46:03.717Z,14.86
2017-07-24T19:48:32.333Z,14.85
2017-07-24T19:51:00.674Z,14.86
2017-07-24T19:53:28.995Z,14.81
2017-07-24T19:55:57.625Z,14.89
2017-07-24T19:58:25.985Z,14.86
2017-07-24T20:00:54.316Z,14.76
2017-07-24T20:03:22.928Z,14.63
2017-07-24T20:05:51.253Z,14.60
2017-07-24T20:08:19.589Z,14.57
2017-07-24T20:10:47.965Z,14.53
2017-07-24T20:13:16.289Z,14.63
2017-07-24T20:15:44.960Z,14.64
2017-07-24T20:18:13.286Z,14.65
2017-07-24T20:20:41.637Z,14.64
2017-07-24T20:23:09.983Z,14.73
2017-07-24T20:25:38.346Z,14.64
2017-07-24T20:28:06.978Z,14.65
2017-07-24T20:30:36.051Z,14.53
2017-07-24T20:33:04.380Z,14.46
2017-07-24T20:35:32.760Z,14.40
2017-07-24T20:38:01.168Z,14.28
2017-07-24T20:40:29.627Z,14.22
2017-07-24T20:42:58.196Z,14.22
2017-07-24T20:45:26.665Z,14.24
2017-07-24T20:47:55.317Z,14.26
2017-07-24T20:50:23.955Z,14.30
2017-07-24T20:52:52.494Z,14.09
2017-07-24T20:55:22.254Z,14.09
2017-07-24T20:57:50.723Z,14.10
2017-07-24T21:00:19.102Z,13.91
2017-07-24T21:02:47.483Z,13.89
2017-07-24T21:05:15.832Z,13.97
2017-07-24T21:07:44.181Z,13.94
2017-07-24T21:10:12.535Z,13.92
2017-07-24T21:12:40.899Z,13.72
2017-07-24T21:15:09.253Z,13.75
2017-07-24T21:17:37.588Z,13.72
2017-07-24T21:20:05.965Z,13.78
2017-07-24T21:22:34.297Z,13.65
2017-07-24T21:25:02.688Z,13.67
2017-07-24T21:27:31.063Z,13.63
2017-07-24T21:29:59.667Z,13.64
2017-07-24T21:32:28.011Z,13.44
2017-07-24T21:34:56.351Z,13.44
2017-07-24T21:37:24.728Z,13.40
2017-07-24T21:39:53.087Z,13.45
2017-07-24T21:42:21.723Z,13.49
2017-07-24T21:44:50.047Z,13.39
2017-07-24T21:47:18.377Z,13.38
2017-07-24T21:49:46.733Z,13.39
2017-07-24T21:52:15.067Z,13.34
2017-07-24T21:54:43.446Z,13.30
2017-07-24T21:57:11.824Z,13.20
2017-07-24T21:59:40.170Z,13.28
2017-07-24T22:02:08.511Z,13.31
2017-07-24T22:04:36.876Z,13.24
2017-07-24T22:07:05.239Z,13.09
2017-07-24T22:09:33.603Z,13.09
2017-07-24T22:12:01.939Z,13.14
2017-07-24T22:14:30.541Z,13.08
2017-07-24T22:16:58.863Z,13.05
2017-07-24T22:19:27.182Z,13.13
2017-07-24T22:21:55.529Z,12.94
2017-07-24T22:24:23.919Z,13.03
2017-07-24T22:26:52.281Z,13.04
2017-07-24T22:29:20.626Z,13.10
2017-07-24T22:31:49.250Z,13.09
2017-07-24T22:34:17.580Z,13.08
2017-07-24T22:36:45.913Z,13.09
2017-07-24T22:39:14.553Z,13.05
2017-07-24T22:41:42.895Z,13.04
2017-07-24T22:44:11.238Z,12.85
2017-07-24T22:46:39.619Z,12.74
2017-07-24T22:49:07.966Z,12.86
2017-07-24T22:51:36.568Z,12.84
2017-07-24T22:54:04.953Z,12.99
2017-07-24T22:56:33.301Z,12.92
2017-07-24T22:59:01.658Z,12.86
2017-07-24T23:01:30.017Z,12.88
2017-07-24T23:03:58.393Z,12.86
2017-07-24T23:06:26.732Z,12.92
2017-07-24T23:08:55.074Z,12.92
2017-07-24T23:11:23.449Z,12.83
2017-07-24T23:13:51.801Z,12.71
2017-07-24T23:16:20.133Z,12.84
2017-07-24T23:18:48.484Z,12.73
2017-07-24T23:21:16.808Z,12.75
2017-07-24T23:29:44.102Z,12.70
2017-07-24T23:32:13.193Z,12.63
2017-07-24T23:34:41.609Z,12.56
2017-07-24T23:37:09.948Z,12.67
2017-07-24T23:39:38.359Z,12.63
2017-07-24T23:42:06.672Z,12.79
2017-07-24T23:44:35.266Z,12.86
2017-07-24T23:47:03.623Z,12.72
2017-07-24T23:49:31.952Z,12.72
2017-07-24T23:52:00.300Z,12.79
2017-07-24T23:54:28.623Z,12.87
2017-07-24T23:56:57.246Z,12.83
2017-07-24T23:59:25.676Z,12.85
